createdAt,value
2022-10-23T00:02:18.145Z,69.95
2022-10-23T00:04:52.151Z,70.18
2022-10-23T00:07:24.866Z,67.70
2022-10-23T00:09:57.370Z,68.95
2022-10-23T00:12:30.253Z,60.78
2022-10-23T00:15:02.792Z,67.65
2022-10-23T00:17:35.390Z,64.10
2022-10-23T00:20:09.258Z,60.70
2022-10-23T00:22:42.082Z,60.15
2022-10-23T00:25:16.659Z,64.80
2022-10-23T00:27:49.197Z,65.47
2022-10-23T00:30:21.993Z,69.10
2022-10-23T00:32:55.205Z,68.07
2022-10-23T00:35:27.838Z,68.50
2022-10-23T00:38:00.476Z,74.60
2022-10-23T00:40:33.223Z,77.07
2022-10-23T00:43:07.853Z,61.80
2022-10-23T00:45:40.501Z,74.25
2022-10-23T00:48:14.033Z,68.88
2022-10-23T00:50:48.911Z,69.72
2022-10-23T00:53:22.472Z,68.75
2022-10-23T00:55:57.916Z,80.53
2022-10-23T01:01:03.359Z,69.63
2022-10-23T01:03:36.272Z,68.60
2022-10-23T01:06:11.635Z,73.03
2022-10-23T01:08:51.259Z,70.00
2022-10-23T01:11:45.049Z,65.80
2022-10-23T01:14:50.117Z,69.60
2022-10-23T01:17:33.912Z,73.88
2022-10-23T01:20:18.331Z,68.18
2022-10-23T01:23:09.683Z,59.50
2022-10-23T01:26:08.143Z,84.45
2022-10-23T01:28:48.621Z,67.40
2022-10-23T01:31:28.880Z,61.35
2022-10-23T01:34:09.626Z,73.00
2022-10-23T01:36:51.969Z,64.97
2022-10-23T01:39:33.774Z,70.60
2022-10-23T01:42:22.451Z,73.18
2022-10-23T01:45:04.216Z,70.18
2022-10-23T01:47:48.352Z,62.97
2022-10-23T01:50:25.307Z,82.40
2022-10-23T01:53:05.587Z,73.63
2022-10-23T01:55:43.285Z,71.63
2022-10-23T01:58:23.266Z,71.53
2022-10-23T02:01:00.393Z,74.57
2022-10-23T02:03:34.876Z,71.53
2022-10-23T02:06:08.216Z,68.80
2022-10-23T02:08:40.932Z,70.47
2022-10-23T02:11:16.537Z,63.97
2022-10-23T02:14:12.491Z,58.92
2022-10-23T02:19:28.529Z,68.38
2022-10-23T02:22:19.496Z,60.85
2022-10-23T02:24:56.781Z,76.05
2022-10-23T02:27:39.344Z,61.97
2022-10-23T02:30:18.221Z,58.03
2022-10-23T02:33:01.966Z,75.82
2022-10-23T02:35:34.554Z,75.40
2022-10-23T02:38:33.550Z,82.75
2022-10-23T02:41:21.435Z,74.07
2022-10-23T02:44:16.178Z,80.97
2022-10-23T02:47:15.526Z,83.28
2022-10-23T02:50:16.322Z,83.82
2022-10-23T02:53:16.853Z,86.35
2022-10-23T02:56:11.053Z,93.15
2022-10-23T02:58:56.998Z,89.80
2022-10-23T03:01:39.912Z,99.20
2022-10-23T03:04:15.816Z,91.30
2022-10-23T03:06:51.483Z,97.68
2022-10-23T03:09:26.495Z,111.40
2022-10-23T03:11:59.063Z,95.68
2022-10-23T03:14:31.599Z,112.00
2022-10-23T03:17:05.100Z,110.15
2022-10-23T03:19:37.625Z,122.50
2022-10-23T03:22:10.817Z,125.03
2022-10-23T03:24:43.674Z,139.95
2022-10-23T03:27:16.596Z,115.88
2022-10-23T03:29:49.146Z,116.38
2022-10-23T03:32:23.629Z,133.15
2022-10-23T03:34:56.312Z,128.50
2022-10-23T03:37:29.517Z,160.55
2022-10-23T03:40:02.619Z,182.05
2022-10-23T03:42:38.732Z,121.53
2022-10-23T03:45:11.383Z,121.50
2022-10-23T03:47:45.496Z,194.73
2022-10-23T03:50:20.259Z,175.82
2022-10-23T03:52:55.152Z,138.45
2022-10-23T03:55:27.607Z,133.57
2022-10-23T03:58:00.378Z,271.20
2022-10-23T04:00:33.038Z,251.27
2022-10-23T04:03:07.041Z,189.15
2022-10-23T04:05:43.660Z,170.93
2022-10-23T04:08:19.283Z,287.48
2022-10-23T04:10:56.052Z,433.90
2022-10-23T04:13:40.335Z,611.58
2022-10-23T04:16:13.038Z,500.15
2022-10-23T04:18:46.152Z,853.13
2022-10-23T04:21:19.170Z,248.52
2022-10-23T04:23:51.772Z,208.30
2022-10-23T04:26:24.465Z,468.20
2022-10-23T04:28:57.277Z,299.92
2022-10-23T04:31:29.908Z,440.38
2022-10-23T04:34:02.474Z,343.70
2022-10-23T04:36:36.672Z,294.25
2022-10-23T04:39:15.127Z,986.20
2022-10-23T04:41:48.212Z,562.65
2022-10-23T04:44:20.824Z,565.58
2022-10-23T04:46:53.651Z,431.77
2022-10-23T04:49:26.170Z,1261.80
2022-10-23T04:52:14.516Z,743.83
2022-10-23T04:55:08.844Z,305.23
2022-10-23T04:57:57.552Z,724.47
2022-10-23T05:00:31.029Z,519.60
2022-10-23T05:03:03.887Z,316.20
2022-10-23T05:05:43.663Z,754.15
2022-10-23T05:08:31.491Z,671.83
2022-10-23T05:11:17.935Z,320.50
2022-10-23T05:13:53.727Z,491.08
2022-10-23T05:16:42.217Z,436.58
2022-10-23T05:19:24.556Z,141.93
2022-10-23T05:21:57.993Z,150.52
2022-10-23T05:24:33.335Z,415.58
2022-10-23T05:27:08.126Z,883.80
2022-10-23T05:29:44.631Z,716.13
2022-10-23T05:32:18.735Z,519.45
2022-10-23T05:34:51.818Z,127.88
2022-10-23T05:37:24.796Z,369.30
2022-10-23T05:40:06.161Z,616.20
2022-10-23T05:42:41.714Z,481.58
2022-10-23T05:45:16.892Z,286.75
2022-10-23T05:48:16.755Z,521.50
2022-10-23T05:51:12.138Z,417.30
2022-10-23T05:53:55.444Z,479.77
2022-10-23T05:56:41.971Z,136.50
2022-10-23T05:59:25.966Z,99.72
2022-10-23T06:02:14.083Z,198.90
2022-10-23T06:04:58.985Z,110.55
2022-10-23T06:07:46.779Z,93.57
2022-10-23T06:10:19.548Z,326.20
2022-10-23T06:12:55.471Z,256.02
2022-10-23T06:15:28.034Z,353.98
2022-10-23T06:18:15.959Z,249.73
2022-10-23T06:20:56.308Z,264.52
2022-10-23T06:23:36.363Z,415.77
2022-10-23T06:26:24.258Z,131.57
2022-10-23T06:29:04.958Z,167.88
2022-10-23T06:31:37.504Z,237.88
2022-10-23T06:34:12.596Z,647.65
2022-10-23T06:36:45.428Z,292.38
2022-10-23T06:39:36.473Z,323.33
2022-10-23T06:42:20.234Z,318.33
2022-10-23T06:45:04.782Z,189.60
2022-10-23T06:47:55.207Z,287.33
2022-10-23T06:50:31.567Z,412.38
2022-10-23T06:53:09.889Z,268.60
2022-10-23T06:55:49.048Z,274.25
2022-10-23T06:58:26.338Z,428.52
2022-10-23T07:01:09.496Z,324.17
2022-10-23T07:03:42.206Z,290.13
2022-10-23T07:06:15.728Z,331.85
2022-10-23T07:08:48.404Z,472.63
2022-10-23T07:11:40.912Z,133.02
2022-10-23T07:14:13.505Z,265.88
2022-10-23T07:16:45.994Z,580.28
2022-10-23T07:19:19.030Z,129.93
2022-10-23T07:22:08.063Z,167.70
2022-10-23T07:24:53.453Z,279.60
2022-10-23T07:27:31.239Z,308.00
2022-10-23T07:30:08.175Z,561.17
2022-10-23T07:32:49.783Z,242.75
2022-10-23T07:35:41.254Z,199.00
2022-10-23T07:38:17.978Z,502.77
2022-10-23T07:40:58.463Z,439.42
2022-10-23T07:46:05.402Z,168.90
2022-10-23T07:48:43.067Z,166.23
2022-10-23T07:51:16.723Z,282.67
2022-10-23T07:53:52.235Z,121.63
2022-10-23T07:56:47.018Z,109.43
2022-10-23T07:59:23.761Z,386.90
2022-10-23T08:02:00.853Z,330.40
2022-10-23T08:04:40.876Z,81.68
2022-10-23T08:07:27.766Z,84.88
2022-10-23T08:12:38.429Z,94.55
2022-10-23T08:15:12.883Z,103.97
2022-10-23T08:17:57.029Z,105.47
2022-10-23T08:20:45.284Z,84.38
2022-10-23T08:23:19.723Z,93.07
2022-10-23T08:25:59.166Z,110.77
2022-10-23T08:28:35.428Z,101.35
2022-10-23T08:31:14.473Z,105.90
2022-10-23T08:33:58.826Z,103.47
2022-10-23T08:36:33.940Z,82.68
2022-10-23T08:39:07.212Z,85.95
2022-10-23T08:41:43.928Z,70.30
2022-10-23T08:44:26.413Z,79.93
2022-10-23T08:47:11.092Z,67.43
2022-10-23T08:50:06.633Z,68.57
2022-10-23T08:52:48.364Z,76.30
2022-10-23T08:55:36.526Z,76.38
2022-10-23T08:58:40.611Z,72.53
2022-10-23T09:01:41.506Z,71.18
2022-10-23T09:04:15.743Z,68.53
2022-10-23T09:07:12.305Z,69.95
2022-10-23T09:09:58.061Z,77.10
2022-10-23T09:15:35.424Z,72.55
2022-10-23T09:18:15.221Z,75.00
2022-10-23T09:20:47.956Z,74.18
2022-10-23T09:23:23.372Z,74.35
2022-10-23T09:28:36.875Z,68.68
2022-10-23T09:31:13.161Z,70.00
2022-10-23T09:34:01.994Z,77.88
2022-10-23T09:36:34.885Z,77.07
2022-10-23T09:39:24.420Z,70.82
2022-10-23T09:41:58.992Z,70.47
2022-10-23T09:44:33.757Z,68.22
2022-10-23T09:47:07.090Z,68.72
2022-10-23T09:49:47.115Z,63.45
2022-10-23T09:52:25.764Z,75.65
2022-10-23T09:55:01.659Z,75.13
2022-10-23T09:57:43.403Z,73.65
2022-10-23T10:00:19.629Z,69.90
2022-10-23T10:03:00.274Z,73.25
2022-10-23T10:05:44.918Z,68.55
2022-10-23T10:08:24.170Z,75.07
2022-10-23T10:11:00.991Z,71.93
2022-10-23T10:13:34.167Z,79.60
2022-10-23T10:16:28.499Z,78.50
2022-10-23T10:19:08.754Z,74.95
2022-10-23T10:21:53.313Z,67.30
2022-10-23T10:24:36.380Z,70.97
2022-10-23T10:27:34.917Z,67.10
2022-10-23T10:30:19.259Z,65.80
2022-10-23T10:33:05.302Z,62.95
2022-10-23T10:35:40.485Z,65.28
2022-10-23T10:38:38.917Z,61.83
2022-10-23T10:41:21.301Z,57.63
2022-10-23T10:44:24.156Z,52.88
2022-10-23T10:47:05.966Z,60.28
2022-10-23T10:49:48.610Z,52.92
2022-10-23T10:52:34.648Z,51.58
2022-10-23T10:55:38.660Z,54.72
2022-10-23T10:58:27.442Z,57.47
2022-10-23T11:01:03.701Z,55.00
2022-10-23T11:03:44.404Z,49.83
2022-10-23T11:06:22.908Z,52.78
2022-10-23T11:09:03.870Z,53.35
2022-10-23T11:11:49.381Z,52.25
2022-10-23T11:14:24.480Z,52.08
2022-10-23T11:17:19.496Z,54.95
2022-10-23T11:20:06.597Z,57.00
2022-10-23T11:23:02.434Z,54.20
2022-10-23T11:25:51.872Z,52.70
2022-10-23T11:28:48.673Z,51.28
2022-10-23T11:31:36.735Z,51.10
2022-10-23T11:34:20.197Z,53.67
2022-10-23T11:36:57.269Z,53.03
2022-10-23T11:39:33.150Z,48.42
2022-10-23T11:42:10.989Z,48.78
2022-10-23T11:44:49.361Z,48.55
2022-10-23T11:47:44.269Z,52.38
2022-10-23T11:50:27.840Z,53.03
2022-10-23T11:53:14.990Z,53.35
2022-10-23T11:56:03.545Z,52.58
2022-10-23T11:58:53.379Z,54.97
2022-10-23T12:01:34.790Z,50.50
2022-10-23T12:04:22.238Z,51.15
2022-10-23T12:07:00.314Z,52.22
2022-10-23T12:09:33.591Z,51.00
2022-10-23T12:12:09.954Z,49.05
2022-10-23T12:14:47.629Z,56.05
2022-10-23T12:17:23.899Z,56.10
2022-10-23T12:20:13.879Z,54.28
2022-10-23T12:23:07.674Z,58.55
2022-10-23T12:26:01.912Z,56.25
2022-10-23T12:28:36.247Z,53.05
2022-10-23T12:31:35.229Z,54.65
2022-10-23T12:34:21.285Z,56.72
2022-10-23T12:37:12.189Z,52.75
2022-10-23T12:39:51.922Z,47.40
2022-10-23T12:42:27.105Z,60.03
2022-10-23T12:45:02.629Z,52.00
2022-10-23T12:47:35.329Z,50.78
2022-10-23T12:50:26.626Z,52.60
2022-10-23T12:53:01.633Z,57.00
2022-10-23T12:58:38.481Z,48.50
2022-10-23T13:01:24.934Z,46.28
2022-10-23T13:04:12.363Z,44.65
2022-10-23T13:06:45.201Z,50.22
2022-10-23T13:09:39.590Z,45.47
2022-10-23T13:12:35.613Z,48.10
2022-10-23T13:15:09.208Z,51.50
2022-10-23T13:17:44.889Z,49.25
2022-10-23T13:20:18.784Z,48.08
2022-10-23T13:23:13.516Z,46.92
2022-10-23T13:26:04.772Z,47.58
2022-10-23T13:28:46.034Z,49.05
2022-10-23T13:31:26.393Z,49.03
2022-10-23T13:34:00.997Z,44.35
2022-10-23T13:36:39.876Z,41.42
2022-10-23T13:39:14.990Z,41.92
2022-10-23T13:44:24.853Z,42.25
2022-10-23T13:46:57.765Z,42.65
2022-10-23T13:49:30.650Z,40.58
2022-10-23T13:52:03.499Z,41.78
2022-10-23T13:54:36.371Z,47.80
2022-10-23T13:57:17.101Z,41.05
2022-10-23T13:59:49.823Z,45.53
2022-10-23T14:02:25.205Z,41.72
2022-10-23T14:04:57.918Z,40.03
2022-10-23T14:07:32.201Z,47.92
2022-10-23T14:12:41.699Z,41.75
2022-10-23T14:15:14.611Z,45.65
2022-10-23T14:17:47.189Z,44.03
2022-10-23T14:20:21.428Z,45.10
2022-10-23T14:22:56.584Z,48.55
2022-10-23T14:25:29.309Z,46.60
2022-10-23T14:28:01.977Z,41.17
2022-10-23T14:30:37.668Z,42.90
2022-10-23T14:33:10.493Z,44.63
2022-10-23T14:35:43.575Z,45.55
2022-10-23T14:38:16.129Z,44.08
2022-10-23T14:40:48.606Z,38.20
2022-10-23T14:43:24.507Z,37.17
2022-10-23T14:45:57.022Z,42.75
2022-10-23T14:48:29.632Z,41.15
2022-10-23T14:51:02.177Z,47.60
2022-10-23T14:53:35.105Z,39.50
2022-10-23T14:56:08.126Z,37.60
2022-10-23T14:58:43.718Z,37.85
2022-10-23T15:01:16.386Z,35.08
2022-10-23T15:03:55.471Z,36.42
2022-10-23T15:06:28.116Z,37.90
2022-10-23T15:09:01.012Z,40.55
2022-10-23T15:11:34.229Z,41.72
2022-10-23T15:14:07.642Z,36.92
2022-10-23T15:16:42.295Z,35.83
2022-10-23T15:19:18.700Z,33.70
2022-10-23T15:21:52.920Z,38.65
2022-10-23T15:24:26.813Z,38.30
2022-10-23T15:27:00.440Z,38.50
2022-10-23T15:29:33.489Z,34.45
2022-10-23T15:32:08.182Z,40.72
2022-10-23T15:34:42.967Z,37.92
2022-10-23T15:37:15.926Z,44.08
2022-10-23T15:39:48.811Z,36.55
2022-10-23T15:42:21.367Z,36.97
2022-10-23T15:44:53.827Z,34.03
2022-10-23T15:47:27.451Z,35.05
2022-10-23T15:50:00.056Z,41.50
2022-10-23T15:52:32.593Z,45.88
2022-10-23T15:55:05.668Z,36.00
2022-10-23T15:57:39.241Z,40.60
2022-10-23T16:00:18.150Z,45.53
2022-10-23T16:02:52.996Z,36.75
2022-10-23T16:05:25.658Z,39.67
2022-10-23T16:07:58.237Z,35.10
2022-10-23T16:10:30.984Z,32.97
2022-10-23T16:13:04.286Z,39.08
2022-10-23T16:15:37.542Z,43.17
2022-10-23T16:18:11.287Z,36.67
2022-10-23T16:20:43.898Z,39.00
2022-10-23T16:23:16.862Z,36.42
2022-10-23T16:25:50.273Z,32.75
2022-10-23T16:28:23.060Z,58.03
2022-10-23T16:30:55.888Z,46.80
2022-10-23T16:33:28.547Z,44.35
2022-10-23T16:36:06.068Z,37.55
2022-10-23T16:38:59.701Z,37.03
2022-10-23T16:41:52.221Z,38.17
2022-10-23T16:44:25.317Z,39.25
2022-10-23T16:47:03.677Z,42.45
2022-10-23T16:49:36.646Z,51.78
2022-10-23T16:52:09.888Z,47.53
2022-10-23T16:54:43.864Z,47.38
2022-10-23T16:57:17.818Z,40.03
2022-10-23T16:59:51.668Z,40.08
2022-10-23T17:02:24.589Z,42.60
2022-10-23T17:04:57.287Z,38.60
2022-10-23T17:07:29.903Z,38.25
2022-10-23T17:10:04.137Z,43.85
2022-10-23T17:12:37.350Z,44.42
2022-10-23T17:15:10.858Z,45.85
2022-10-23T17:17:43.565Z,44.42
2022-10-23T17:20:16.625Z,44.00
2022-10-23T17:22:49.285Z,41.58
2022-10-23T17:25:22.018Z,40.60
2022-10-23T17:27:54.654Z,42.17
2022-10-23T17:30:27.326Z,37.55
2022-10-23T17:33:01.854Z,42.90
2022-10-23T17:35:34.713Z,43.50
2022-10-23T17:38:07.779Z,43.30
2022-10-23T17:40:40.669Z,40.30
2022-10-23T17:43:15.773Z,37.97
2022-10-23T17:45:48.225Z,37.83
2022-10-23T17:48:20.948Z,42.78
2022-10-23T17:51:11.079Z,35.97
2022-10-23T17:53:46.128Z,41.13
2022-10-23T17:56:23.419Z,35.45
2022-10-23T17:59:00.387Z,41.58
2022-10-23T18:01:34.895Z,33.95
2022-10-23T18:04:08.561Z,38.22
2022-10-23T18:06:46.289Z,35.28
2022-10-23T18:09:19.895Z,35.70
2022-10-23T18:11:53.068Z,35.03
2022-10-23T18:14:28.529Z,35.22
2022-10-23T18:17:02.253Z,35.47
2022-10-23T18:19:34.987Z,35.88
2022-10-23T18:22:07.543Z,36.90
2022-10-23T18:24:40.115Z,35.67
2022-10-23T18:27:12.868Z,35.13
2022-10-23T18:29:45.471Z,33.33
2022-10-23T18:32:18.024Z,38.17
2022-10-23T18:34:51.518Z,38.05
2022-10-23T18:37:26.804Z,34.28
2022-10-23T18:40:01.268Z,33.85
2022-10-23T18:42:35.098Z,38.55
2022-10-23T18:45:08.532Z,33.75
2022-10-23T18:47:41.152Z,34.40
2022-10-23T18:50:13.873Z,32.13
2022-10-23T18:52:46.557Z,36.47
2022-10-23T18:55:20.048Z,33.85
2022-10-23T18:57:52.547Z,30.25
2022-10-23T19:00:25.555Z,30.30
2022-10-23T19:02:58.135Z,31.73
2022-10-23T19:05:30.819Z,32.38
2022-10-23T19:08:03.490Z,34.67
2022-10-23T19:10:36.908Z,29.52
2022-10-23T19:13:09.479Z,38.13
2022-10-23T19:15:42.897Z,33.72
2022-10-23T19:18:15.628Z,31.30
2022-10-23T19:20:48.247Z,33.70
2022-10-23T19:23:22.482Z,26.98
2022-10-23T19:25:55.183Z,36.45
2022-10-23T19:28:27.826Z,28.35
2022-10-23T19:31:00.995Z,33.75
2022-10-23T19:33:34.575Z,35.65
2022-10-23T19:36:12.545Z,36.47
2022-10-23T19:38:47.118Z,32.65
2022-10-23T19:41:19.710Z,32.67
2022-10-23T19:43:52.255Z,31.40
2022-10-23T19:46:25.041Z,31.67
2022-10-23T19:48:57.857Z,32.53
2022-10-23T19:51:30.618Z,34.28
2022-10-23T19:54:03.821Z,32.55
2022-10-23T19:56:36.875Z,30.80
2022-10-23T19:59:13.167Z,35.63
2022-10-23T20:01:47.934Z,31.55
2022-10-23T20:04:21.612Z,32.20
2022-10-23T20:06:54.264Z,36.00
2022-10-23T20:09:27.111Z,33.60
2022-10-23T20:12:00.963Z,36.67
2022-10-23T20:14:34.199Z,36.72
2022-10-23T20:17:07.067Z,35.28
2022-10-23T20:19:39.635Z,34.53
2022-10-23T20:22:12.730Z,31.20
2022-10-23T20:24:45.524Z,36.55
2022-10-23T20:27:18.952Z,34.47
2022-10-23T20:29:51.574Z,26.35
2022-10-23T20:32:24.188Z,30.83
2022-10-23T20:34:56.745Z,39.00
2022-10-23T20:37:29.327Z,31.83
2022-10-23T20:40:01.812Z,27.15
2022-10-23T20:42:34.553Z,33.97
2022-10-23T20:45:09.525Z,28.60
2022-10-23T20:47:42.447Z,37.70
2022-10-23T20:50:15.421Z,33.28
2022-10-23T20:52:48.207Z,41.28
2022-10-23T20:55:20.820Z,31.83
2022-10-23T20:57:53.821Z,32.13
2022-10-23T21:00:27.058Z,36.47
2022-10-23T21:03:01.717Z,35.38
2022-10-23T21:05:34.448Z,34.85
2022-10-23T21:08:07.184Z,34.28
2022-10-23T21:10:46.786Z,39.22
2022-10-23T21:13:19.329Z,35.67
2022-10-23T21:15:52.312Z,33.25
2022-10-23T21:18:44.825Z,32.83
2022-10-23T21:21:20.943Z,33.85
2022-10-23T21:23:56.226Z,37.67
2022-10-23T21:29:17.475Z,33.38
2022-10-23T21:31:55.541Z,32.10
2022-10-23T21:34:30.952Z,35.92
2022-10-23T21:39:48.149Z,28.88
2022-10-23T21:42:20.940Z,30.38
2022-10-23T21:44:54.037Z,34.25
2022-10-23T21:47:26.743Z,30.17
2022-10-23T21:49:59.269Z,33.72
2022-10-23T21:52:31.882Z,32.95
2022-10-23T21:55:05.435Z,33.83
2022-10-23T21:57:38.026Z,31.45
2022-10-23T22:00:15.680Z,32.63
2022-10-23T22:02:49.132Z,32.65
2022-10-23T22:05:21.956Z,31.38
2022-10-23T22:07:54.548Z,31.42
2022-10-23T22:10:27.235Z,33.05
2022-10-23T22:12:59.849Z,34.55
2022-10-23T22:15:32.537Z,30.10
2022-10-23T22:18:05.450Z,28.50
2022-10-23T22:20:38.046Z,33.45
2022-10-23T22:23:10.487Z,30.33
2022-10-23T22:25:43.083Z,32.40
2022-10-23T22:28:15.608Z,30.52
2022-10-23T22:30:48.233Z,30.67
2022-10-23T22:33:20.866Z,31.58
2022-10-23T22:35:53.490Z,32.25
2022-10-23T22:38:26.222Z,28.83
2022-10-23T22:41:02.379Z,30.20
2022-10-23T22:43:35.521Z,33.47
2022-10-23T22:46:12.555Z,31.77
2022-10-23T22:48:46.023Z,28.40
2022-10-23T22:51:24.724Z,29.60
2022-10-23T22:53:59.429Z,32.80
2022-10-23T22:56:33.124Z,31.80
2022-10-23T22:59:05.830Z,28.33
2022-10-23T23:01:42.791Z,28.73
2022-10-23T23:07:12.881Z,27.70
2022-10-23T23:09:45.891Z,34.97
2022-10-23T23:12:19.905Z,33.15
2022-10-23T23:14:52.574Z,29.33
2022-10-23T23:17:25.235Z,31.10
2022-10-23T23:19:57.947Z,36.33
2022-10-23T23:22:31.069Z,31.27
2022-10-23T23:25:03.760Z,29.88
2022-10-23T23:27:36.585Z,34.25
2022-10-23T23:30:10.191Z,31.73
2022-10-23T23:32:43.255Z,32.65
2022-10-23T23:35:16.307Z,32.05
2022-10-23T23:37:48.951Z,31.08
2022-10-23T23:40:21.568Z,34.58
2022-10-23T23:42:54.085Z,36.88
2022-10-23T23:45:26.783Z,34.30
2022-10-23T23:47:59.572Z,32.33
2022-10-23T23:50:32.200Z,31.67
2022-10-23T23:53:04.847Z,28.27
2022-10-23T23:55:37.865Z,30.52
2022-10-23T23:58:12.885Z,35.25
